SBKGSBPL

Guest
Details From SBKG - PRESIDENTE JOAO SUASSUNA
To SBPL - SENADOR NILO COELHO
Flight Number -
Tags generated
Created
Modified
Stats Distance 366 nm / 678 km
Max Altitude 34,000 ft / 10,363 m
Waypoints 7
Social Downloads 0
Likes 0
Share VATSIM

Download

Looking for another format? Having issues loading an existing format? Contact us
Advertisement - Login to hide

Notes

Basic altitude profile: - Ascent Rate: 2500ft/min - Ascent Speed: 250kts - Cruise Altitude: 35000ft - Cruise Speed: 420kts - Descent Rate: 1500ft/min - Descent Speed: 250kts Options: - Use NATs: yes - Use PACOTS: yes - Use low airways: yes - Use high airways: yes

Route

SBKG OPSUS UZ7 EDITE OPABA UW14 PTL SBPL

ID Type Via Altitude Latitude Longitude Leg Dist Tot Dist Heading (true) Name
O SBKG APT - 0 ft / 0 m -7.26992˚ -35.89636˚ - 0 nm - PRESIDENTE JOAO SUASSUNA
OPSUS FIX - 34,000 ft / 10,363 m -7.11667˚ -37.59917˚ 101 nm 101 nm 275° / 275° -
EDITE FIX UZ7 (AWY-HI) 34,000 ft / 10,363 m -6.90750˚ -38.14000˚ 34 nm 136 nm 291° / 291° -
OPABA FIX - 34,000 ft / 10,363 m -6.65850˚ -38.47717˚ 25 nm 161 nm 307° / 307° -
BERTI FIX UW14 (AWY-HI) 24,500 ft / 7,468 m -7.91283˚ -39.43933˚ 94 nm 256 nm 217° / 217° -
PTL VOR UW14 (AWY-HI) 24,500 ft / 7,468 m -9.36317˚ -40.56133˚ 109 nm 365 nm 217° / 217° PETROLINA VOR-DME
O SBPL APT - 0 ft / 0 m -9.36241˚ -40.56910˚ 0 nm 366 nm 276° / 276° SENADOR NILO COELHO

Altitude Profile

Advertisement - Login to hide

Weather


0- 5 10 15 20 25 30 35+ Temperature / ° C

Clouds and Precipitation
Forecast for 2017-12-18 00:00 UTC. Updated an hour ago

Ground ~20,000 ft ~40,000 ft Winds

SBKG

Details ICAO SBKG (CPV)
Name PRESIDENTE JOAO SUASSUNA
Region Brazil
Timezone America/Fortaleza (UTC-3.0)
Stats Elevation 1,646 ft / 502 m (AMSL)
Location -7.269916° -35.896364°
Runways 1
Magnetic Variation 21.923° W

METAR

Not found

TAF

TAF SBKG 171530Z 1718/1806 09014KT 9999 SCT025 TX31/1718Z TN22/1805Z BECMG 1801/1803 09009KT BKN007 RMK PEA

Decode

Departure Runways

ID Width Length Bearing (true) Bearing (mag) Surface Threshold Offset Overrun Length
15 138 ft / 42 m 5,262 ft / 1,604 m 125.55° 147.47° Asphalt 0 ft / 0 m 170 ft / 52 m
33 138 ft / 42 m 5,262 ft / 1,604 m 305.54° 327.46° Asphalt 0 ft / 0 m 200 ft / 61 m

SBPL

Details ICAO SBPL (PNZ)
Name SENADOR NILO COELHO
Region Brazil
Timezone America/Recife (UTC-3.0)
Stats Elevation 1,263 ft / 385 m (AMSL)
Location -9.362412° -40.569099°
Runways 1
Magnetic Variation 22.596° W

METAR

SBPL 172000Z 11006KT 9999 SCT040 34/14 Q1011

Decode

TAF

TAF SBPL 171530Z 1718/1818 12010KT 9999 FEW025 TN25/1806Z TX34/1815Z RMK PEA

Decode

Destination Runways

ID Width Length Bearing (true) Bearing (mag) Surface Threshold Offset Overrun Length
13 140 ft / 43 m 10,642 ft / 3,244 m 109.17° 131.77° Asphalt 1,605 ft / 489 m 0 ft / 0 m
31 140 ft / 43 m 10,642 ft / 3,244 m 289.16° 311.76° Asphalt 0 ft / 0 m 0 ft / 0 m

Popular Alternatives